page 4747 of 1011840 registered users

eBook PostsUsers

  1. 0zipperspoon67 registered @ 2012-12-03 12:50:42, last login @ 2012-12-03 12:50:42
  2. 0menu6woolen registered @ 2012-12-03 12:50:42, last login @ 2012-12-03 12:50:42
  3. 0archer8rocket registered @ 2012-12-03 12:50:58, last login @ 2012-12-03 12:50:58
  4. 0franceoyster08 registered @ 2012-12-03 12:51:45, last login @ 2012-12-03 12:51:45
  5. 0claveeurope61 registered @ 2012-12-03 12:52:56, last login @ 2012-12-03 12:52:56
  6. 0order6arm registered @ 2012-12-03 12:54:04, last login @ 2012-12-03 12:54:04
  7. 0state4plier registered @ 2012-12-03 12:54:39, last login @ 2012-12-03 12:54:39
  8. 0routerwing5 registered @ 2012-12-03 12:54:46, last login @ 2012-12-03 12:54:46
  9. 0knotbed37 registered @ 2012-12-03 12:54:48, last login @ 2012-12-03 12:54:48
  10. 0potato38bolt registered @ 2012-12-03 12:55:02, last login @ 2012-12-03 12:55:02
  11. 0man20pan registered @ 2012-12-03 12:55:51, last login @ 2012-12-03 12:55:51
  12. 0numbercourt75 registered @ 2012-12-03 12:56:10, last login @ 2012-12-03 12:56:10
  13. 0glasseast91 registered @ 2012-12-03 12:56:27, last login @ 2012-12-03 12:56:27
  14. 0pumarange62 registered @ 2012-12-03 12:56:39, last login @ 2012-12-03 12:56:39
  15. 0camp49stool registered @ 2012-12-03 12:56:41, last login @ 2012-12-03 12:56:41
  16. 0pike92gauge registered @ 2012-12-03 12:56:44, last login @ 2012-12-03 12:56:44
  17. 0sinfulslave registered @ 2012-12-03 12:58:13, last login @ 2012-12-03 12:58:13
  18. 0result0foot registered @ 2012-12-03 12:58:28, last login @ 2012-12-03 12:58:28
  19. 06emeryear1 registered @ 2012-12-03 12:58:29, last login @ 2012-12-03 12:58:29
  20. 0chord5glider registered @ 2012-12-03 12:58:51, last login @ 2012-12-03 12:58:51
  21. 0cinema51delete registered @ 2012-12-03 12:58:51, last login @ 2012-12-03 12:58:51
  22. 0gatetemper9 registered @ 2012-12-03 12:59:09, last login @ 2012-12-03 12:59:09
  23. 0tempo69lock registered @ 2012-12-03 12:59:24, last login @ 2012-12-03 12:59:24
  24. 0shoe4slash registered @ 2012-12-03 13:01:02, last login @ 2012-12-03 13:01:02
  25. 0cotton3plough registered @ 2012-12-03 13:01:07, last login @ 2012-12-03 13:01:07
  26. 0robindriver5 registered @ 2012-12-03 13:01:23, last login @ 2012-12-03 13:01:23
  27. 0levelpeen09 registered @ 2012-12-03 13:02:18, last login @ 2012-12-03 13:02:18
  28. 0clockdoor22 registered @ 2012-12-03 13:02:21, last login @ 2012-12-03 13:02:21
  29. 0trickguitar6 registered @ 2012-12-03 13:02:33, last login @ 2012-12-03 13:02:33
  30. 0sparkthrone73 registered @ 2012-12-03 13:02:47, last login @ 2012-12-03 13:39:45
  31. 0jamesffff registered @ 2012-12-03 13:03:48, last login @ 2012-12-03 13:04:22
  32. 0marcovjqa3mfl0 registered @ 2012-12-03 13:04:10, last login @ 2012-12-03 13:04:10
  33. 0weeder64angle registered @ 2012-12-03 13:04:28, last login @ 2012-12-03 13:04:28
  34. 0maudebdmbiihjy registered @ 2012-12-03 13:04:47, last login @ 2012-12-03 13:04:47
  35. 0moat7church registered @ 2012-12-03 13:06:34, last login @ 2012-12-03 13:06:34
  36. 0basintwist66 registered @ 2012-12-03 13:06:50, last login @ 2012-12-03 13:06:50
  37. 0mile5dew registered @ 2012-12-03 13:08:37, last login @ 2012-12-03 13:08:37
  38. 0veil48bush registered @ 2012-12-03 13:08:46, last login @ 2012-12-03 13:08:46
  39. 0brazilpoison0 registered @ 2012-12-03 13:08:50, last login @ 2012-12-03 13:08:50
  40. 0drug2class registered @ 2012-12-03 13:08:52, last login @ 2012-12-03 13:08:52
  41. 0cicadaframe09 registered @ 2012-12-03 13:09:13, last login @ 2012-12-03 13:09:13
  42. 0nephewdrink5 registered @ 2012-12-03 13:09:17, last login @ 2012-12-03 13:09:17
  43. 0pickle98rain registered @ 2012-12-03 13:09:39, last login @ 2012-12-03 13:09:39
  44. 0beadaries5 registered @ 2012-12-03 13:10:09, last login @ 2012-12-03 13:10:09
  45. 0divingbrow43 registered @ 2012-12-03 13:10:40, last login @ 2012-12-03 13:10:40
  46. 0sudanseason2 registered @ 2012-12-03 13:11:07, last login @ 2012-12-03 13:11:07
  47. 0diving1fir registered @ 2012-12-03 13:11:15, last login @ 2012-12-03 13:11:15
  48. 0kitten10plate registered @ 2012-12-03 13:11:15, last login @ 2012-12-03 13:11:15
  49. 0notifyzephyr3 registered @ 2012-12-03 13:13:48, last login @ 2012-12-03 13:13:48
  50. 0cactustower26 registered @ 2012-12-03 13:14:20, last login @ 2012-12-03 13:14:20
  51. 0flightoyster59 registered @ 2012-12-03 13:14:23, last login @ 2012-12-03 13:14:23
  52. 0turnipbase67 registered @ 2012-12-03 13:14:23, last login @ 2012-12-03 13:14:23
  53. 0sprouttailor8 registered @ 2012-12-03 13:14:37, last login @ 2012-12-03 13:14:37
  54. 0veil19pull registered @ 2012-12-03 13:15:11, last login @ 2012-12-03 13:15:11
  55. 0pond34oyster registered @ 2012-12-03 13:15:19, last login @ 2012-12-03 13:15:19
  56. 0swing79zone registered @ 2012-12-03 13:15:39, last login @ 2012-12-03 13:15:39
  57. 0wrenflat12 registered @ 2012-12-03 13:15:43, last login @ 2012-12-03 13:15:43
  58. 0clovershears9 registered @ 2012-12-03 13:15:50, last login @ 2012-12-03 13:15:50
  59. 0rodpanda25 registered @ 2012-12-03 13:16:28, last login @ 2012-12-03 13:16:28
  60. 0icon11pike registered @ 2012-12-03 13:16:45, last login @ 2012-12-03 13:16:45
  61. 0hand1watch registered @ 2012-12-03 13:17:25, last login @ 2012-12-03 13:17:25
  62. 0codvest1 registered @ 2012-12-03 13:18:32, last login @ 2012-12-03 13:18:32
  63. 0plate0soap registered @ 2012-12-03 13:18:59, last login @ 2012-12-03 13:18:59
  64. 0screen4pie registered @ 2012-12-03 13:19:04, last login @ 2012-12-03 13:19:04
  65. 0debtor6pipe registered @ 2012-12-03 13:19:37, last login @ 2012-12-03 13:19:37
  66. 0size7cd registered @ 2012-12-03 13:19:42, last login @ 2012-12-03 13:19:42
  67. 0skirt8shade registered @ 2012-12-03 13:20:47, last login @ 2012-12-03 13:20:47
  68. 0atm09recess registered @ 2012-12-03 13:21:10, last login @ 2012-12-03 13:21:10
  69. 0peace0sword registered @ 2012-12-03 13:22:11, last login @ 2012-12-03 13:22:11
  70. 0stonewalrus2 registered @ 2012-12-03 13:22:32, last login @ 2012-12-03 13:22:32
  71. 0listbit1 registered @ 2012-12-03 13:23:01, last login @ 2012-12-03 13:23:01
  72. 0shearsrake6 registered @ 2012-12-03 13:23:15, last login @ 2012-12-03 13:23:15
  73. 0week25layer registered @ 2012-12-03 13:25:13, last login @ 2012-12-03 13:25:13
  74. 0jury50clutch registered @ 2012-12-03 13:26:37, last login @ 2012-12-03 13:26:37
  75. 0garagewalk8 registered @ 2012-12-03 13:26:55, last login @ 2012-12-03 13:26:55
  76. 0meterhouse34 registered @ 2012-12-03 13:27:57, last login @ 2012-12-03 13:27:57
  77. 0i2pn9jw981e registered @ 2012-12-03 13:28:00, last login @ 2012-12-03 13:28:00
  78. 0zai77rocket registered @ 2012-12-03 13:29:24, last login @ 2012-12-03 13:51:35
  79. 0breakdust89 registered @ 2012-12-03 13:29:24, last login @ 2012-12-03 13:29:24
  80. 0beech0thumb registered @ 2012-12-03 13:29:36, last login @ 2012-12-03 13:29:36
  81. 0polowheel3 registered @ 2012-12-03 13:30:35, last login @ 2012-12-03 13:30:35
  82. 0LVCICI registered @ 2012-12-03 13:30:36, last login @ 2012-12-03 13:34:13
  83. 0casevalley4 registered @ 2012-12-03 13:31:11, last login @ 2012-12-03 13:31:11
  84. 0toniarpq4m68m registered @ 2012-12-03 13:31:18, last login @ 2012-12-03 13:31:18
  85. 0shearsplot38 registered @ 2012-12-03 13:31:21, last login @ 2012-12-03 13:31:21
  86. 0lunchpower04 registered @ 2012-12-03 13:32:26, last login @ 2012-12-03 13:32:26
  87. 0nylon2mist registered @ 2012-12-03 13:33:07, last login @ 2012-12-03 13:33:07
  88. 0namechance6 registered @ 2012-12-03 13:33:44, last login @ 2012-12-03 13:33:44
  89. 0fire2toilet registered @ 2012-12-03 13:33:45, last login @ 2012-12-03 13:33:45
  90. 0comma48owl registered @ 2012-12-03 13:34:18, last login @ 2012-12-03 13:34:18
  91. 0effectstep5 registered @ 2012-12-03 13:35:00, last login @ 2012-12-03 13:35:00
  92. 0clientnephew81 registered @ 2012-12-03 13:36:02, last login @ 2012-12-03 13:36:02
  93. 0fowlcod56 registered @ 2012-12-03 13:36:24, last login @ 2012-12-03 13:36:24
  94. 0dinghy93men registered @ 2012-12-03 13:36:40, last login @ 2012-12-03 13:36:40
  95. 0packet21stream registered @ 2012-12-03 13:36:49, last login @ 2012-12-03 13:36:49
  96. 0gradechest2 registered @ 2012-12-03 13:37:04, last login @ 2012-12-03 13:37:04
  97. 0soap32ocean registered @ 2012-12-03 13:37:12, last login @ 2012-12-03 13:37:12
  98. 0tax68quail registered @ 2012-12-03 13:37:21, last login @ 2012-12-03 13:37:21
  99. 0lentil63area registered @ 2012-12-03 13:39:03, last login @ 2012-12-03 13:39:03
  100. 0azzabobo registered @ 2012-12-03 13:40:10, last login @ 2012-12-03 14:00:52
  101. 0spring2star registered @ 2012-12-03 13:40:43, last login @ 2012-12-03 13:40:43

More...

[4757] [4756] [4755] [4754] [4753] [4752] [4751] [4750] [4749] [4748] [4747] [4746] [4745] [4744] [4743] [4742] [4741] [4740] [4739] [4738] ...[1]
Back to Top